Time,TemperatureF,DewpointF,PressureIn,WindDirection,WindDirectionDegrees,WindSpeedMPH,WindSpeedGustMPH,Humidity,HourlyPrecipIn,Conditions,Clouds,dailyrainin,SoftwareType,DateUTC
2013-02-23 00:05:00,34.9,27.5,29.72,West,271,0.9,4.9,74,0.00,,,0.00,meteobridge,2013-02-23 08:05:00,
2013-02-23 00:15:00,34.9,27.1,29.72,West,268,0.0,2.9,73,0.00,,,0.00,meteobridge,2013-02-23 08:15:00,
2013-02-23 00:25:00,34.5,26.8,29.74,SE,141,0.9,4.0,73,0.00,,,0.00,meteobridge,2013-02-23 08:25:00,
2013-02-23 00:35:00,34.3,27.0,29.73,West,264,2.0,2.9,74,0.00,,,0.00,meteobridge,2013-02-23 08:35:00,
2013-02-23 00:45:00,34.0,27.0,29.74,WNW,303,0.0,2.9,75,0.00,,,0.00,meteobridge,2013-02-23 08:45:00,
2013-02-23 00:55:00,33.6,26.8,29.75,SSE,158,2.9,6.0,76,0.00,,,0.00,meteobridge,2013-02-23 08:55:00,
2013-02-23 01:05:00,33.6,26.6,29.74,WNW,285,2.0,6.9,75,0.00,,,0.00,meteobridge,2013-02-23 09:05:00,
2013-02-23 01:15:00,33.4,26.4,29.75,SSW,210,0.0,10.1,75,0.00,,,0.00,meteobridge,2013-02-23 09:15:00,
2013-02-23 01:25:00,33.3,26.6,29.76,WNW,290,0.0,2.0,76,0.00,,,0.00,meteobridge,2013-02-23 09:25:00,
2013-02-23 01:35:00,32.9,25.9,29.76,SW,219,0.0,8.1,75,0.00,,,0.00,meteobridge,2013-02-23 09:35:00,
2013-02-23 01:45:00,32.7,26.1,29.75,NW,310,2.0,4.0,76,0.00,,,0.00,meteobridge,2013-02-23 09:45:00,
2013-02-23 01:55:00,32.7,25.7,29.76,South,172,0.0,2.9,75,0.00,,,0.00,meteobridge,2013-02-23 09:55:00,
2013-02-23 02:05:00,32.7,25.3,29.76,SSE,150,4.9,6.0,74,0.00,,,0.00,meteobridge,2013-02-23 10:05:00,
2013-02-23 02:15:00,32.7,25.3,29.78,NNW,327,0.9,2.0,74,0.00,,,0.00,meteobridge,2013-02-23 10:15:00,
2013-02-23 02:25:00,32.5,25.2,29.79,SSE,162,0.0,0.9,74,0.00,,,0.00,meteobridge,2013-02-23 10:25:00,
2013-02-23 02:35:00,32.2,25.5,29.80,NE,39,0.0,0.9,76,0.00,,,0.00,meteobridge,2013-02-23 10:35:00,
2013-02-23 02:46:00,31.6,25.5,29.81,East,79,0.0,0.0,78,0.00,,,0.00,meteobridge,2013-02-23 10:46:00,
2013-02-23 02:56:00,31.3,25.5,29.81,ENE,72,0.9,0.9,79,0.00,,,0.00,meteobridge,2013-02-23 10:56:00,
2013-02-23 03:06:00,30.9,25.7,29.82,SE,128,2.9,4.0,81,0.00,,,0.00,meteobridge,2013-02-23 11:06:00,
2013-02-23 03:16:00,30.7,25.5,29.82,SSE,162,2.0,4.0,81,0.00,,,0.00,meteobridge,2013-02-23 11:16:00,
2013-02-23 03:26:00,30.7,25.3,29.82,South,186,2.0,6.0,80,0.00,,,0.00,meteobridge,2013-02-23 11:26:00,
2013-02-23 03:36:00,30.7,25.3,29.81,SE,143,0.0,0.9,80,0.00,,,0.00,meteobridge,2013-02-23 11:36:00,
2013-02-23 03:46:00,30.6,24.4,29.82,SSE,159,0.9,0.9,78,0.00,,,0.00,meteobridge,2013-02-23 11:46:00,
2013-02-23 03:56:00,30.6,24.3,29.82,ENE,74,0.0,0.9,77,0.00,,,0.00,meteobridge,2013-02-23 11:56:00,
2013-02-23 04:06:00,30.4,24.3,29.83,South,175,0.0,2.0,78,0.00,,,0.00,meteobridge,2013-02-23 12:06:00,
2013-02-23 04:16:00,30.0,24.1,29.83,SSE,159,0.0,0.9,78,0.00,,,0.00,meteobridge,2013-02-23 12:16:00,
2013-02-23 04:26:00,30.0,24.3,29.84,South,176,0.0,4.0,79,0.00,,,0.00,meteobridge,2013-02-23 12:26:00,
2013-02-23 04:36:00,29.8,24.4,29.84,SSE,155,0.0,0.9,80,0.00,,,0.00,meteobridge,2013-02-23 12:36:00,
2013-02-23 04:46:00,29.3,23.9,29.85,SE,146,0.0,2.9,80,0.00,,,0.00,meteobridge,2013-02-23 12:46:00,
2013-02-23 04:56:00,29.3,24.3,29.85,South,184,0.0,2.0,81,0.00,,,0.00,meteobridge,2013-02-23 12:56:00,
2013-02-23 05:06:00,29.1,24.3,29.85,SE,134,2.0,2.0,82,0.00,,,0.00,meteobridge,2013-02-23 13:06:00,
2013-02-23 05:16:00,29.3,23.9,29.86,SE,134,0.0,0.9,80,0.00,,,0.00,meteobridge,2013-02-23 13:16:00,
2013-02-23 05:26:00,29.7,24.6,29.88,South,176,0.0,0.9,81,0.00,,,0.00,meteobridge,2013-02-23 13:26:00,
2013-02-23 05:36:00,29.7,24.3,29.88,SSW,198,0.9,2.0,80,0.00,,,0.00,meteobridge,2013-02-23 13:36:00,
2013-02-23 05:46:00,29.7,24.6,29.89,SE,146,0.0,0.9,81,0.00,,,0.00,meteobridge,2013-02-23 13:46:00,
2013-02-23 05:56:00,29.8,24.8,29.90,South,176,0.9,2.0,81,0.00,,,0.00,meteobridge,2013-02-23 13:56:00,
2013-02-23 06:06:00,30.0,25.0,29.90,SSE,164,0.9,2.9,81,0.00,,,0.00,meteobridge,2013-02-23 14:06:00,
2013-02-23 06:16:00,29.8,25.0,29.91,SSE,148,2.0,2.0,82,0.00,,,0.00,meteobridge,2013-02-23 14:16:00,
2013-02-23 06:27:00,29.8,25.0,29.91,South,171,0.0,4.0,82,0.00,,,0.00,meteobridge,2013-02-23 14:27:00,
2013-02-23 06:37:00,29.8,25.3,29.91,SSE,162,0.0,4.0,83,0.00,,,0.00,meteobridge,2013-02-23 14:37:00,
2013-02-23 06:47:00,29.8,25.3,29.91,SSE,164,2.0,2.0,83,0.00,,,0.00,meteobridge,2013-02-23 14:47:00,
2013-02-23 06:57:00,29.8,25.3,29.91,SE,138,0.0,2.9,83,0.00,,,0.00,meteobridge,2013-02-23 14:57:00,
2013-02-23 07:07:00,29.8,25.3,29.92,South,180,0.0,2.0,83,0.00,,,0.00,meteobridge,2013-02-23 15:07:00,
2013-02-23 07:17:00,29.7,25.2,29.93,SE,137,0.0,0.9,83,0.00,,,0.00,meteobridge,2013-02-23 15:17:00,
2013-02-23 07:27:00,29.7,25.3,29.93,SSE,154,0.9,2.0,84,0.00,,,0.00,meteobridge,2013-02-23 15:27:00,
2013-02-23 07:37:00,29.8,25.5,29.94,SE,134,0.9,0.9,84,0.00,,,0.00,meteobridge,2013-02-23 15:37:00,
2013-02-23 07:47:00,30.0,25.7,29.94,South,171,0.9,2.0,84,0.00,,,0.00,meteobridge,2013-02-23 15:47:00,
2013-02-23 07:57:00,30.0,25.7,29.95,SSE,151,0.0,0.9,84,0.00,,,0.00,meteobridge,2013-02-23 15:57:00,
2013-02-23 08:07:00,29.8,25.9,29.96,SE,144,0.0,6.0,85,0.00,,,0.00,meteobridge,2013-02-23 16:07:00,
2013-02-23 08:17:00,30.0,26.1,29.95,SSE,163,0.9,2.0,85,0.00,,,0.00,meteobridge,2013-02-23 16:17:00,
2013-02-23 08:27:00,30.4,26.4,29.96,SSE,158,0.9,2.0,85,0.00,,,0.00,meteobridge,2013-02-23 16:27:00,
2013-02-23 08:37:00,30.7,26.4,29.97,South,169,0.0,0.9,84,0.00,,,0.00,meteobridge,2013-02-23 16:37:00,
2013-02-23 08:47:00,30.7,26.4,29.98,SE,135,0.0,4.0,84,0.00,,,0.00,meteobridge,2013-02-23 16:47:00,
2013-02-23 08:57:00,31.5,27.1,29.98,WNW,294,0.0,0.9,84,0.00,,,0.00,meteobridge,2013-02-23 16:57:00,
2013-02-23 09:07:00,31.8,27.0,29.99,SE,141,0.0,2.0,82,0.00,,,0.00,meteobridge,2013-02-23 17:07:00,
2013-02-23 09:17:00,32.4,27.1,29.99,ESE,123,2.0,2.9,81,0.00,,,0.00,meteobridge,2013-02-23 17:17:00,
2013-02-23 09:27:00,32.7,27.5,30.00,South,179,0.9,2.9,81,0.00,,,0.00,meteobridge,2013-02-23 17:27:00,
2013-02-23 09:37:00,33.1,27.9,30.01,SSE,150,0.0,0.9,81,0.00,,,0.00,meteobridge,2013-02-23 17:37:00,
2013-02-23 09:47:00,33.6,27.9,30.01,SSE,163,0.0,2.9,79,0.00,,,0.00,meteobridge,2013-02-23 17:47:00,
2013-02-23 09:58:00,34.2,28.0,30.01,SW,228,0.0,2.0,78,0.00,,,0.00,meteobridge,2013-02-23 17:58:00,
2013-02-23 10:08:00,34.7,28.2,30.01,SE,145,0.9,2.9,77,0.00,,,0.00,meteobridge,2013-02-23 18:08:00,
2013-02-23 10:18:00,35.6,28.8,30.02,South,174,0.0,2.9,76,0.00,,,0.00,meteobridge,2013-02-23 18:18:00,
2013-02-23 10:28:00,36.3,28.8,30.02,SSE,167,0.0,2.9,74,0.00,,,0.00,meteobridge,2013-02-23 18:28:00,
2013-02-23 10:38:00,36.9,28.8,30.02,SE,141,0.9,4.9,72,0.00,,,0.00,meteobridge,2013-02-23 18:38:00,
2013-02-23 10:48:00,37.2,29.3,30.03,SSE,162,2.0,4.0,73,0.00,,,0.00,meteobridge,2013-02-23 18:48:00,
2013-02-23 10:58:00,38.1,30.2,30.03,SE,133,4.9,4.9,73,0.00,,,0.00,meteobridge,2013-02-23 18:58:00,
2013-02-23 11:08:00,37.8,29.8,30.03,NW,304,0.0,0.9,73,0.00,,,0.00,meteobridge,2013-02-23 19:08:00,
2013-02-23 11:18:00,37.9,29.3,30.03,SE,142,0.0,4.9,71,0.00,,,0.00,meteobridge,2013-02-23 19:18:00,
2013-02-23 11:28:00,38.7,29.7,30.02,SW,214,0.0,2.0,70,0.00,,,0.00,meteobridge,2013-02-23 19:28:00,
2013-02-23 11:38:00,38.8,29.5,30.03,West,281,0.0,0.9,69,0.00,,,0.00,meteobridge,2013-02-23 19:38:00,
2013-02-23 11:48:00,39.2,29.1,30.03,SSE,148,2.0,2.0,67,0.00,,,0.00,meteobridge,2013-02-23 19:48:00,
2013-02-23 11:58:00,39.6,29.5,30.03,WNW,297,2.0,2.9,67,0.00,,,0.00,meteobridge,2013-02-23 19:58:00,
2013-02-23 12:08:00,38.5,28.0,30.03,WSW,252,2.0,2.0,66,0.00,,,0.00,meteobridge,2013-02-23 20:08:00,
2013-02-23 12:18:00,39.0,29.7,30.03,SE,137,0.0,0.9,69,0.00,,,0.00,meteobridge,2013-02-23 20:18:00,
2013-02-23 12:28:00,39.9,28.4,30.03,WNW,295,0.0,4.0,63,0.00,,,0.00,meteobridge,2013-02-23 20:28:00,
2013-02-23 12:38:00,39.7,28.9,30.03,South,186,0.0,4.0,65,0.00,,,0.00,meteobridge,2013-02-23 20:38:00,
2013-02-23 12:48:00,39.7,28.6,30.03,SSE,147,0.0,0.9,64,0.00,,,0.00,meteobridge,2013-02-23 20:48:00,
2013-02-23 12:59:00,40.3,28.8,30.03,West,269,0.0,0.9,63,0.00,,,0.00,meteobridge,2013-02-23 20:59:00,
2013-02-23 13:09:00,40.6,29.1,30.04,WNW,285,0.0,2.0,63,0.00,,,0.00,meteobridge,2013-02-23 21:09:00,
2013-02-23 13:19:00,40.6,28.6,30.04,SW,220,0.0,0.9,62,0.00,,,0.00,meteobridge,2013-02-23 21:19:00,
2013-02-23 13:29:00,40.8,28.4,30.04,West,278,0.0,0.9,61,0.00,,,0.00,meteobridge,2013-02-23 21:29:00,
2013-02-23 13:39:00,41.5,29.1,30.04,ESE,105,0.0,0.9,61,0.00,,,0.00,meteobridge,2013-02-23 21:39:00,
2013-02-23 13:49:00,41.4,29.3,30.05,NW,326,0.9,0.9,62,0.00,,,0.00,meteobridge,2013-02-23 21:49:00,
2013-02-23 13:59:00,42.1,29.1,30.05,SSE,152,0.9,2.0,60,0.00,,,0.00,meteobridge,2013-02-23 21:59:00,
2013-02-23 14:09:00,42.3,28.6,30.05,NW,316,0.0,2.9,58,0.00,,,0.00,meteobridge,2013-02-23 22:09:00,
2013-02-23 14:19:00,41.9,27.9,30.05,West,276,0.9,2.0,57,0.00,,,0.00,meteobridge,2013-02-23 22:19:00,
2013-02-23 14:30:00,42.1,27.9,30.06,WNW,293,0.0,2.9,57,0.00,,,0.00,meteobridge,2013-02-23 22:30:00,
2013-02-23 14:40:00,42.4,28.8,30.06,SSE,162,0.9,0.9,58,0.00,,,0.00,meteobridge,2013-02-23 22:40:00,
2013-02-23 14:50:00,43.2,28.9,30.06,West,269,0.0,0.9,57,0.00,,,0.00,meteobridge,2013-02-23 22:50:00,
2013-02-23 15:00:00,43.3,26.4,30.06,SSE,149,0.0,4.9,51,0.00,,,0.00,meteobridge,2013-02-23 23:00:00,
2013-02-23 15:10:00,43.5,26.6,30.07,ESE,117,0.0,0.9,51,0.00,,,0.00,meteobridge,2013-02-23 23:10:00,
2013-02-23 15:20:00,43.3,25.0,30.07,WSW,249,2.0,2.9,48,0.00,,,0.00,meteobridge,2013-02-23 23:20:00,
2013-02-23 15:30:00,43.2,22.1,30.07,WNW,293,0.0,2.9,43,0.00,,,0.00,meteobridge,2013-02-23 23:30:00,
2013-02-23 15:40:00,42.8,21.9,30.07,ENE,58,0.0,0.0,43,0.00,,,0.00,meteobridge,2013-02-23 23:40:00,
2013-02-23 15:50:00,43.0,22.6,30.08,West,276,0.0,0.0,44,0.00,,,0.00,meteobridge,2013-02-23 23:50:00,
2013-02-23 16:00:00,43.0,22.6,30.08,West,259,0.0,2.0,44,0.00,,,0.00,meteobridge,2013-02-24 00:00:00,
2013-02-23 16:10:00,43.0,22.6,30.09,WSW,238,0.0,2.0,44,0.00,,,0.00,meteobridge,2013-02-24 00:10:00,
2013-02-23 16:20:00,43.0,22.6,30.09,WSW,249,4.0,4.0,44,0.00,,,0.00,meteobridge,2013-02-24 00:20:00,
2013-02-23 16:30:00,43.0,23.5,30.09,West,260,0.0,2.0,46,0.00,,,0.00,meteobridge,2013-02-24 00:30:00,
2013-02-23 16:41:00,42.3,23.0,30.10,West,278,0.0,0.9,46,0.00,,,0.00,meteobridge,2013-02-24 00:41:00,
2013-02-23 16:51:00,41.5,23.4,30.11,WNW,286,0.0,0.0,48,0.00,,,0.00,meteobridge,2013-02-24 00:51:00,
2013-02-23 17:01:00,41.2,23.9,30.11,WNW,285,0.0,0.9,50,0.00,,,0.00,meteobridge,2013-02-24 01:01:00,
2013-02-23 17:11:00,41.2,23.9,30.11,WNW,286,0.0,0.0,50,0.00,,,0.00,meteobridge,2013-02-24 01:11:00,
2013-02-23 17:21:00,40.8,23.5,30.12,WNW,286,0.0,0.0,50,0.00,,,0.00,meteobridge,2013-02-24 01:21:00,
2013-02-23 17:31:00,40.6,23.9,30.13,WNW,283,0.0,2.0,51,0.00,,,0.00,meteobridge,2013-02-24 01:31:00,
2013-02-23 17:41:00,40.5,25.2,30.14,NNE,22,0.9,2.9,54,0.00,,,0.00,meteobridge,2013-02-24 01:41:00,
2013-02-23 17:51:00,38.7,28.9,30.14,North,4,0.9,4.0,68,0.00,,,0.00,meteobridge,2013-02-24 01:51:00,
2013-02-23 18:01:00,36.7,29.8,30.14,ENE,60,0.0,2.0,76,0.00,,,0.00,meteobridge,2013-02-24 02:01:00,
2013-02-23 18:11:00,35.8,29.7,30.15,ESE,110,0.9,0.9,78,0.00,,,0.00,meteobridge,2013-02-24 02:11:00,
2013-02-23 18:22:00,35.1,29.5,30.15,SE,146,0.0,0.0,80,0.00,,,0.00,meteobridge,2013-02-24 02:22:00,
2013-02-23 18:32:00,34.3,29.1,30.15,SE,146,0.0,0.0,81,0.00,,,0.00,meteobridge,2013-02-24 02:32:00,
2013-02-23 18:42:00,33.6,28.8,30.15,SE,146,0.0,0.0,82,0.00,,,0.00,meteobridge,2013-02-24 02:42:00,
2013-02-23 18:52:00,33.3,28.4,30.16,SE,146,0.0,0.0,82,0.00,,,0.00,meteobridge,2013-02-24 02:52:00,
2013-02-23 19:02:00,32.7,28.2,30.16,SE,146,0.0,0.0,83,0.00,,,0.00,meteobridge,2013-02-24 03:02:00,
2013-02-23 19:12:00,32.5,28.0,30.17,SE,146,0.0,0.0,83,0.00,,,0.00,meteobridge,2013-02-24 03:12:00,
2013-02-23 19:23:00,32.0,27.5,30.17,SE,146,0.0,0.0,83,0.00,,,0.00,meteobridge,2013-02-24 03:23:00,
2013-02-23 19:33:00,31.5,27.0,30.18,SE,146,0.0,0.0,83,0.00,,,0.00,meteobridge,2013-02-24 03:33:00,
2013-02-23 19:43:00,30.7,26.8,30.18,SE,146,0.0,0.0,85,0.00,,,0.00,meteobridge,2013-02-24 03:43:00,
2013-02-23 19:54:00,30.2,26.6,30.18,SE,146,0.0,0.0,86,0.00,,,0.00,meteobridge,2013-02-24 03:54:00,
2013-02-23 20:04:00,30.0,26.4,30.18,SE,146,0.0,0.0,86,0.00,,,0.00,meteobridge,2013-02-24 04:04:00,
2013-02-23 20:15:00,29.5,26.1,30.18,SE,146,0.0,0.0,87,0.00,,,0.00,meteobridge,2013-02-24 04:15:00,
2013-02-23 20:24:00,28.9,25.9,30.19,SE,146,0.0,0.0,88,0.00,,,0.00,meteobridge,2013-02-24 04:24:00,
2013-02-23 20:35:00,28.9,26.1,30.19,SE,146,0.0,0.0,89,0.00,,,0.00,meteobridge,2013-02-24 04:35:00,
2013-02-23 20:45:00,28.8,25.9,30.19,SE,146,0.0,0.0,89,0.00,,,0.00,meteobridge,2013-02-24 04:45:00,
2013-02-23 20:55:00,28.6,25.7,30.20,SE,146,0.0,0.0,89,0.00,,,0.00,meteobridge,2013-02-24 04:55:00,
2013-02-23 21:05:00,28.2,25.7,30.20,SE,146,0.0,0.0,90,0.00,,,0.00,meteobridge,2013-02-24 05:05:00,
2013-02-23 21:15:00,28.2,25.3,30.21,SE,146,0.0,0.0,89,0.00,,,0.00,meteobridge,2013-02-24 05:15:00,
2013-02-23 21:25:00,28.2,25.3,30.22,SE,146,0.0,0.0,89,0.00,,,0.00,meteobridge,2013-02-24 05:25:00,
2013-02-23 21:35:00,28.2,25.3,30.22,SE,146,0.0,0.0,89,0.00,,,0.00,meteobridge,2013-02-24 05:35:00,
2013-02-23 21:46:00,28.2,25.7,30.22,SE,146,0.0,0.0,90,0.00,,,0.00,meteobridge,2013-02-24 05:46:00,
2013-02-23 21:56:00,27.7,25.7,30.23,SE,146,0.0,0.0,92,0.00,,,0.00,meteobridge,2013-02-24 05:56:00,
2013-02-23 22:06:00,27.1,25.2,30.23,SE,146,0.0,0.0,92,0.00,,,0.00,meteobridge,2013-02-24 06:06:00,
2013-02-23 22:17:00,26.8,24.8,30.23,SE,146,0.0,0.0,92,0.00,,,0.00,meteobridge,2013-02-24 06:17:00,
2013-02-23 22:27:00,27.0,25.2,30.24,SE,146,0.0,0.0,93,0.00,,,0.00,meteobridge,2013-02-24 06:27:00,
2013-02-23 22:37:00,26.8,25.0,30.24,SE,146,0.0,0.0,93,0.00,,,0.00,meteobridge,2013-02-24 06:37:00,
2013-02-23 22:48:00,26.2,24.4,30.24,SE,146,0.0,0.0,93,0.00,,,0.00,meteobridge,2013-02-24 06:48:00,
2013-02-23 22:58:00,26.4,24.6,30.23,SE,146,0.0,0.0,93,0.00,,,0.00,meteobridge,2013-02-24 06:58:00,
2013-02-23 23:08:00,26.4,24.6,30.24,SE,146,0.0,0.0,93,0.00,,,0.00,meteobridge,2013-02-24 07:08:00,
2013-02-23 23:18:00,26.2,24.4,30.24,SE,146,0.0,0.0,93,0.00,,,0.00,meteobridge,2013-02-24 07:18:00,
2013-02-23 23:28:00,26.1,24.3,30.24,SE,146,0.0,0.0,93,0.00,,,0.00,meteobridge,2013-02-24 07:28:00,
2013-02-23 23:38:00,26.2,24.3,30.24,SE,146,0.0,0.0,92,0.00,,,0.00,meteobridge,2013-02-24 07:38:00,
2013-02-23 23:48:00,26.1,24.3,30.25,SE,146,0.0,0.0,93,0.00,,,0.00,meteobridge,2013-02-24 07:48:00,
2013-02-23 23:58:00,26.6,24.6,30.25,SE,143,0.9,0.9,92,0.00,,,0.00,meteobridge,2013-02-24 07:58:00,